sensor_id;sensor_type;location;lat;lon;timestamp;temperature;humidity
57058;DHT22;55017;52.848;6.748;2023-09-08T00:00:52;18.90;99.90
57058;DHT22;55017;52.848;6.748;2023-09-08T00:03:18;19.00;99.90
57058;DHT22;55017;52.848;6.748;2023-09-08T00:05:43;18.90;99.90
57058;DHT22;55017;52.848;6.748;2023-09-08T00:08:09;18.80;99.90
57058;DHT22;55017;52.848;6.748;2023-09-08T00:10:34;18.70;99.90
57058;DHT22;55017;52.848;6.748;2023-09-08T00:13:00;18.70;99.90
57058;DHT22;55017;52.848;6.748;2023-09-08T00:15:25;18.60;99.90
57058;DHT22;55017;52.848;6.748;2023-09-08T00:17:51;18.60;99.90
57058;DHT22;55017;52.848;6.748;2023-09-08T00:20:16;18.50;99.90
57058;DHT22;55017;52.848;6.748;2023-09-08T00:22:42;18.50;99.90
57058;DHT22;55017;52.848;6.748;2023-09-08T00:25:08;18.40;99.90
57058;DHT22;55017;52.848;6.748;2023-09-08T00:27:33;18.40;99.90
57058;DHT22;55017;52.848;6.748;2023-09-08T00:29:59;18.40;99.90
57058;DHT22;55017;52.848;6.748;2023-09-08T00:32:27;18.30;99.90
57058;DHT22;55017;52.848;6.748;2023-09-08T00:34:52;18.30;99.90
57058;DHT22;55017;52.848;6.748;2023-09-08T00:37:18;18.20;99.90
57058;DHT22;55017;52.848;6.748;2023-09-08T00:39:44;18.20;99.90
57058;DHT22;55017;52.848;6.748;2023-09-08T00:42:09;18.20;99.90
57058;DHT22;55017;52.848;6.748;2023-09-08T00:44:35;18.10;99.90
57058;DHT22;55017;52.848;6.748;2023-09-08T00:47:00;18.00;99.90
57058;DHT22;55017;52.848;6.748;2023-09-08T00:49:26;18.10;99.90
57058;DHT22;55017;52.848;6.748;2023-09-08T00:51:52;18.00;99.90
57058;DHT22;55017;52.848;6.748;2023-09-08T00:54:18;18.00;99.90
57058;DHT22;55017;52.848;6.748;2023-09-08T00:56:44;18.00;99.90
57058;DHT22;55017;52.848;6.748;2023-09-08T00:59:11;18.00;99.90
57058;DHT22;55017;52.848;6.748;2023-09-08T01:01:37;17.90;99.90
57058;DHT22;55017;52.848;6.748;2023-09-08T01:04:03;18.00;99.90
57058;DHT22;55017;52.848;6.748;2023-09-08T01:06:28;17.80;99.90
57058;DHT22;55017;52.848;6.748;2023-09-08T01:08:54;17.70;99.90
57058;DHT22;55017;52.848;6.748;2023-09-08T01:11:21;17.70;99.90
57058;DHT22;55017;52.848;6.748;2023-09-08T01:13:47;17.70;99.90
57058;DHT22;55017;52.848;6.748;2023-09-08T01:16:12;17.70;99.90
57058;DHT22;55017;52.848;6.748;2023-09-08T01:18:38;17.70;99.90
57058;DHT22;55017;52.848;6.748;2023-09-08T01:27:12;17.50;99.90
57058;DHT22;55017;52.848;6.748;2023-09-08T01:29:41;17.50;99.90
57058;DHT22;55017;52.848;6.748;2023-09-08T01:32:07;17.40;99.90
57058;DHT22;55017;52.848;6.748;2023-09-08T01:34:34;17.30;99.90
57058;DHT22;55017;52.848;6.748;2023-09-08T01:37:02;17.30;99.90
57058;DHT22;55017;52.848;6.748;2023-09-08T01:39:29;17.30;99.90
57058;DHT22;55017;52.848;6.748;2023-09-08T01:41:55;17.30;99.90
57058;DHT22;55017;52.848;6.748;2023-09-08T01:44:20;17.20;99.90
57058;DHT22;55017;52.848;6.748;2023-09-08T01:46:46;17.20;99.90
57058;DHT22;55017;52.848;6.748;2023-09-08T01:49:11;17.30;99.90
57058;DHT22;55017;52.848;6.748;2023-09-08T01:51:37;17.10;99.90
57058;DHT22;55017;52.848;6.748;2023-09-08T01:54:03;17.10;99.90
57058;DHT22;55017;52.848;6.748;2023-09-08T01:56:28;17.10;99.90
57058;DHT22;55017;52.848;6.748;2023-09-08T01:58:54;17.30;99.90
57058;DHT22;55017;52.848;6.748;2023-09-08T02:01:19;17.20;99.90
57058;DHT22;55017;52.848;6.748;2023-09-08T02:03:45;17.00;99.90
57058;DHT22;55017;52.848;6.748;2023-09-08T02:06:10;17.00;99.90
57058;DHT22;55017;52.848;6.748;2023-09-08T02:08:36;17.00;99.90
57058;DHT22;55017;52.848;6.748;2023-09-08T02:11:01;17.00;99.90
57058;DHT22;55017;52.848;6.748;2023-09-08T02:13:27;16.90;99.90
57058;DHT22;55017;52.848;6.748;2023-09-08T02:15:53;16.80;99.90
57058;DHT22;55017;52.848;6.748;2023-09-08T02:18:18;16.80;99.90
57058;DHT22;55017;52.848;6.748;2023-09-08T02:20:44;16.80;99.90
57058;DHT22;55017;52.848;6.748;2023-09-08T02:23:09;16.70;99.90
57058;DHT22;55017;52.848;6.748;2023-09-08T02:25:35;16.80;99.90
57058;DHT22;55017;52.848;6.748;2023-09-08T02:28:00;16.70;99.90
57058;DHT22;55017;52.848;6.748;2023-09-08T02:30:26;16.70;99.90
57058;DHT22;55017;52.848;6.748;2023-09-08T02:32:52;16.60;99.90
57058;DHT22;55017;52.848;6.748;2023-09-08T02:35:17;16.70;99.90
57058;DHT22;55017;52.848;6.748;2023-09-08T02:37:43;16.60;99.90
57058;DHT22;55017;52.848;6.748;2023-09-08T02:40:09;16.60;99.90
57058;DHT22;55017;52.848;6.748;2023-09-08T02:42:35;16.50;99.90
57058;DHT22;55017;52.848;6.748;2023-09-08T02:45:00;16.50;99.90
57058;DHT22;55017;52.848;6.748;2023-09-08T02:47:26;16.50;99.90
57058;DHT22;55017;52.848;6.748;2023-09-08T02:49:51;16.40;99.90
57058;DHT22;55017;52.848;6.748;2023-09-08T02:52:17;16.40;99.90
57058;DHT22;55017;52.848;6.748;2023-09-08T02:54:45;16.50;99.90
57058;DHT22;55017;52.848;6.748;2023-09-08T02:57:10;16.40;99.90
57058;DHT22;55017;52.848;6.748;2023-09-08T02:59:36;16.40;99.90
57058;DHT22;55017;52.848;6.748;2023-09-08T03:02:01;16.50;99.90
57058;DHT22;55017;52.848;6.748;2023-09-08T03:04:27;16.30;99.90
57058;DHT22;55017;52.848;6.748;2023-09-08T03:06:52;16.20;99.90
57058;DHT22;55017;52.848;6.748;2023-09-08T03:09:18;16.20;99.90
57058;DHT22;55017;52.848;6.748;2023-09-08T03:11:44;16.20;99.90
57058;DHT22;55017;52.848;6.748;2023-09-08T03:14:09;16.20;99.90
57058;DHT22;55017;52.848;6.748;2023-09-08T03:16:35;16.10;99.90
57058;DHT22;55017;52.848;6.748;2023-09-08T03:19:00;16.10;99.90
57058;DHT22;55017;52.848;6.748;2023-09-08T03:21:26;16.00;99.90
57058;DHT22;55017;52.848;6.748;2023-09-08T03:23:51;16.10;99.90
57058;DHT22;55017;52.848;6.748;2023-09-08T03:26:17;16.00;99.90
57058;DHT22;55017;52.848;6.748;2023-09-08T03:28:42;16.20;99.90
57058;DHT22;55017;52.848;6.748;2023-09-08T03:31:08;16.00;99.90
57058;DHT22;55017;52.848;6.748;2023-09-08T03:33:34;15.80;99.90
57058;DHT22;55017;52.848;6.748;2023-09-08T03:36:00;15.90;99.90
57058;DHT22;55017;52.848;6.748;2023-09-08T03:38:26;15.90;99.90
57058;DHT22;55017;52.848;6.748;2023-09-08T03:40:52;15.90;99.90
57058;DHT22;55017;52.848;6.748;2023-09-08T03:43:17;15.90;99.90
57058;DHT22;55017;52.848;6.748;2023-09-08T03:45:43;15.80;99.90
57058;DHT22;55017;52.848;6.748;2023-09-08T03:48:09;15.80;99.90
57058;DHT22;55017;52.848;6.748;2023-09-08T03:50:35;15.90;99.90
57058;DHT22;55017;52.848;6.748;2023-09-08T03:53:00;15.90;99.90
57058;DHT22;55017;52.848;6.748;2023-09-08T03:55:26;15.90;99.90
57058;DHT22;55017;52.848;6.748;2023-09-08T03:57:52;15.80;99.90
57058;DHT22;55017;52.848;6.748;2023-09-08T04:00:17;15.90;99.90
57058;DHT22;55017;52.848;6.748;2023-09-08T04:02:50;15.90;99.90
57058;DHT22;55017;52.848;6.748;2023-09-08T04:05:17;15.80;99.90
57058;DHT22;55017;52.848;6.748;2023-09-08T04:07:44;15.90;99.90
57058;DHT22;55017;52.848;6.748;2023-09-08T04:10:10;15.90;99.90
57058;DHT22;55017;52.848;6.748;2023-09-08T04:12:36;15.80;99.90
57058;DHT22;55017;52.848;6.748;2023-09-08T04:15:01;15.80;99.90
57058;DHT22;55017;52.848;6.748;2023-09-08T04:17:27;15.80;99.90
57058;DHT22;55017;52.848;6.748;2023-09-08T04:19:53;15.80;99.90
57058;DHT22;55017;52.848;6.748;2023-09-08T04:22:18;15.70;99.90
57058;DHT22;55017;52.848;6.748;2023-09-08T04:24:44;15.80;99.90
57058;DHT22;55017;52.848;6.748;2023-09-08T04:27:09;15.70;99.90
57058;DHT22;55017;52.848;6.748;2023-09-08T04:29:36;15.80;99.90
57058;DHT22;55017;52.848;6.748;2023-09-08T04:32:01;15.70;99.90
57058;DHT22;55017;52.848;6.748;2023-09-08T04:34:38;15.60;99.90
57058;DHT22;55017;52.848;6.748;2023-09-08T04:37:04;15.80;99.90
57058;DHT22;55017;52.848;6.748;2023-09-08T04:39:30;15.70;99.90
57058;DHT22;55017;52.848;6.748;2023-09-08T04:41:55;15.70;99.90
57058;DHT22;55017;52.848;6.748;2023-09-08T04:44:21;15.60;99.90
57058;DHT22;55017;52.848;6.748;2023-09-08T04:46:47;15.60;99.90
57058;DHT22;55017;52.848;6.748;2023-09-08T04:49:13;15.50;99.90
57058;DHT22;55017;52.848;6.748;2023-09-08T04:51:39;15.60;99.90
57058;DHT22;55017;52.848;6.748;2023-09-08T04:54:04;15.50;99.90
57058;DHT22;55017;52.848;6.748;2023-09-08T04:56:30;15.50;99.90
57058;DHT22;55017;52.848;6.748;2023-09-08T04:58:55;15.50;99.90
57058;DHT22;55017;52.848;6.748;2023-09-08T05:01:23;15.50;99.90
57058;DHT22;55017;52.848;6.748;2023-09-08T05:03:49;15.40;99.90
57058;DHT22;55017;52.848;6.748;2023-09-08T05:06:14;15.40;99.90
57058;DHT22;55017;52.848;6.748;2023-09-08T05:08:40;15.40;99.90
57058;DHT22;55017;52.848;6.748;2023-09-08T05:11:05;15.40;99.90
57058;DHT22;55017;52.848;6.748;2023-09-08T05:13:31;15.40;99.90
57058;DHT22;55017;52.848;6.748;2023-09-08T05:15:56;15.40;99.90
57058;DHT22;55017;52.848;6.748;2023-09-08T05:18:36;15.40;99.90
57058;DHT22;55017;52.848;6.748;2023-09-08T05:21:02;15.50;99.90
57058;DHT22;55017;52.848;6.748;2023-09-08T05:23:27;15.50;99.90
57058;DHT22;55017;52.848;6.748;2023-09-08T05:25:54;15.50;99.90
57058;DHT22;55017;52.848;6.748;2023-09-08T05:28:20;15.50;99.90
57058;DHT22;55017;52.848;6.748;2023-09-08T05:30:45;15.50;99.90
57058;DHT22;55017;52.848;6.748;2023-09-08T05:33:11;15.60;99.90
57058;DHT22;55017;52.848;6.748;2023-09-08T05:35:36;15.60;99.90
57058;DHT22;55017;52.848;6.748;2023-09-08T05:38:02;15.70;99.90
57058;DHT22;55017;52.848;6.748;2023-09-08T05:40:28;15.70;99.90
57058;DHT22;55017;52.848;6.748;2023-09-08T05:42:53;15.80;99.90
57058;DHT22;55017;52.848;6.748;2023-09-08T05:45:19;15.80;99.90
57058;DHT22;55017;52.848;6.748;2023-09-08T05:47:44;15.80;99.90
57058;DHT22;55017;52.848;6.748;2023-09-08T05:50:10;15.90;99.90
57058;DHT22;55017;52.848;6.748;2023-09-08T05:52:36;15.90;99.90
57058;DHT22;55017;52.848;6.748;2023-09-08T05:55:02;16.10;99.90
57058;DHT22;55017;52.848;6.748;2023-09-08T05:57:27;16.00;99.90
57058;DHT22;55017;52.848;6.748;2023-09-08T05:59:53;16.10;99.90
57058;DHT22;55017;52.848;6.748;2023-09-08T06:02:18;16.20;99.90
57058;DHT22;55017;52.848;6.748;2023-09-08T06:04:44;16.40;99.90
57058;DHT22;55017;52.848;6.748;2023-09-08T06:07:09;16.50;99.90
57058;DHT22;55017;52.848;6.748;2023-09-08T06:09:35;16.60;99.90
57058;DHT22;55017;52.848;6.748;2023-09-08T06:12:01;16.70;99.90
57058;DHT22;55017;52.848;6.748;2023-09-08T06:14:26;16.80;99.90
57058;DHT22;55017;52.848;6.748;2023-09-08T06:16:52;17.00;99.90
57058;DHT22;55017;52.848;6.748;2023-09-08T06:19:17;17.10;99.90
57058;DHT22;55017;52.848;6.748;2023-09-08T06:21:43;17.20;99.90
57058;DHT22;55017;52.848;6.748;2023-09-08T06:24:09;17.30;99.90
57058;DHT22;55017;52.848;6.748;2023-09-08T06:26:34;17.50;99.90
57058;DHT22;55017;52.848;6.748;2023-09-08T06:29:00;17.60;99.90
57058;DHT22;55017;52.848;6.748;2023-09-08T06:31:27;17.80;99.90
57058;DHT22;55017;52.848;6.748;2023-09-08T06:33:52;18.00;99.90
57058;DHT22;55017;52.848;6.748;2023-09-08T06:36:18;18.10;99.90
57058;DHT22;55017;52.848;6.748;2023-09-08T06:38:44;18.20;99.90
57058;DHT22;55017;52.848;6.748;2023-09-08T06:41:13;18.40;99.90
57058;DHT22;55017;52.848;6.748;2023-09-08T06:43:38;18.50;99.90
57058;DHT22;55017;52.848;6.748;2023-09-08T06:46:04;18.70;99.90
57058;DHT22;55017;52.848;6.748;2023-09-08T06:48:30;18.80;99.90
57058;DHT22;55017;52.848;6.748;2023-09-08T06:50:56;18.90;99.90
57058;DHT22;55017;52.848;6.748;2023-09-08T06:53:22;19.10;99.90
57058;DHT22;55017;52.848;6.748;2023-09-08T06:55:48;19.20;99.90
57058;DHT22;55017;52.848;6.748;2023-09-08T06:58:14;19.30;99.90
57058;DHT22;55017;52.848;6.748;2023-09-08T07:00:42;19.70;99.90
57058;DHT22;55017;52.848;6.748;2023-09-08T07:03:08;19.70;99.90
57058;DHT22;55017;52.848;6.748;2023-09-08T07:05:34;19.90;99.90
57058;DHT22;55017;52.848;6.748;2023-09-08T07:07:59;20.00;99.90
57058;DHT22;55017;52.848;6.748;2023-09-08T07:10:25;20.20;99.90
57058;DHT22;55017;52.848;6.748;2023-09-08T07:12:51;20.30;99.90
57058;DHT22;55017;52.848;6.748;2023-09-08T07:15:16;20.40;99.90
57058;DHT22;55017;52.848;6.748;2023-09-08T07:17:42;20.60;99.90
57058;DHT22;55017;52.848;6.748;2023-09-08T07:20:08;20.70;99.90
57058;DHT22;55017;52.848;6.748;2023-09-08T07:22:34;20.80;99.90
57058;DHT22;55017;52.848;6.748;2023-09-08T07:24:59;21.00;99.90
57058;DHT22;55017;52.848;6.748;2023-09-08T07:27:25;21.20;99.90
57058;DHT22;55017;52.848;6.748;2023-09-08T07:29:51;21.30;99.90
57058;DHT22;55017;52.848;6.748;2023-09-08T07:32:17;21.60;99.90
57058;DHT22;55017;52.848;6.748;2023-09-08T07:34:43;21.60;99.90
57058;DHT22;55017;52.848;6.748;2023-09-08T07:37:09;21.90;99.90
57058;DHT22;55017;52.848;6.748;2023-09-08T07:39:34;22.00;99.90
57058;DHT22;55017;52.848;6.748;2023-09-08T07:42:01;22.00;99.90
57058;DHT22;55017;52.848;6.748;2023-09-08T07:44:27;22.30;99.90
57058;DHT22;55017;52.848;6.748;2023-09-08T07:46:52;22.50;99.90
57058;DHT22;55017;52.848;6.748;2023-09-08T07:49:20;22.60;99.90
57058;DHT22;55017;52.848;6.748;2023-09-08T07:51:46;22.70;99.90
57058;DHT22;55017;52.848;6.748;2023-09-08T07:54:13;22.90;99.90
57058;DHT22;55017;52.848;6.748;2023-09-08T07:56:38;23.10;99.90
57058;DHT22;55017;52.848;6.748;2023-09-08T07:59:06;23.50;99.90
57058;DHT22;55017;52.848;6.748;2023-09-08T08:01:32;23.40;99.90
57058;DHT22;55017;52.848;6.748;2023-09-08T08:03:58;23.50;99.90
57058;DHT22;55017;52.848;6.748;2023-09-08T08:06:23;23.60;99.90
57058;DHT22;55017;52.848;6.748;2023-09-08T08:08:49;23.80;99.90
57058;DHT22;55017;52.848;6.748;2023-09-08T08:11:16;23.90;99.90
57058;DHT22;55017;52.848;6.748;2023-09-08T08:13:46;24.00;99.90
57058;DHT22;55017;52.848;6.748;2023-09-08T08:16:11;24.20;99.00
57058;DHT22;55017;52.848;6.748;2023-09-08T08:18:37;24.30;99.60
57058;DHT22;55017;52.848;6.748;2023-09-08T08:21:03;24.30;99.70
57058;DHT22;55017;52.848;6.748;2023-09-08T08:23:29;24.50;99.00
57058;DHT22;55017;52.848;6.748;2023-09-08T08:25:56;24.50;99.20
57058;DHT22;55017;52.848;6.748;2023-09-08T08:28:22;24.70;97.20
57058;DHT22;55017;52.848;6.748;2023-09-08T08:30:47;24.80;97.30
57058;DHT22;55017;52.848;6.748;2023-09-08T08:33:13;25.10;98.40
57058;DHT22;55017;52.848;6.748;2023-09-08T08:35:39;25.20;98.00
57058;DHT22;55017;52.848;6.748;2023-09-08T08:38:05;25.40;97.10
57058;DHT22;55017;52.848;6.748;2023-09-08T08:40:31;25.50;96.50
57058;DHT22;55017;52.848;6.748;2023-09-08T08:42:59;25.70;97.20
57058;DHT22;55017;52.848;6.748;2023-09-08T08:45:26;25.80;95.90
57058;DHT22;55017;52.848;6.748;2023-09-08T08:47:52;25.90;95.60
57058;DHT22;55017;52.848;6.748;2023-09-08T08:50:19;26.10;96.20
57058;DHT22;55017;52.848;6.748;2023-09-08T08:52:46;26.20;94.80
57058;DHT22;55017;52.848;6.748;2023-09-08T08:55:12;26.30;94.80
57058;DHT22;55017;52.848;6.748;2023-09-08T08:57:39;26.40;93.40
57058;DHT22;55017;52.848;6.748;2023-09-08T09:00:07;26.40;92.60
57058;DHT22;55017;52.848;6.748;2023-09-08T09:02:36;26.50;92.50
57058;DHT22;55017;52.848;6.748;2023-09-08T09:05:04;26.70;92.70
57058;DHT22;55017;52.848;6.748;2023-09-08T09:07:31;26.80;92.40
57058;DHT22;55017;52.848;6.748;2023-09-08T09:09:57;27.00;91.60
57058;DHT22;55017;52.848;6.748;2023-09-08T09:12:24;27.10;92.10
57058;DHT22;55017;52.848;6.748;2023-09-08T09:14:53;27.10;87.20
57058;DHT22;55017;52.848;6.748;2023-09-08T09:17:19;27.20;90.20
57058;DHT22;55017;52.848;6.748;2023-09-08T09:19:44;27.40;90.00
57058;DHT22;55017;52.848;6.748;2023-09-08T09:22:10;27.50;90.40
57058;DHT22;55017;52.848;6.748;2023-09-08T09:24:40;27.60;90.60
57058;DHT22;55017;52.848;6.748;2023-09-08T09:27:10;27.70;85.30
57058;DHT22;55017;52.848;6.748;2023-09-08T09:29:46;27.80;88.00
57058;DHT22;55017;52.848;6.748;2023-09-08T09:32:12;27.80;89.80
57058;DHT22;55017;52.848;6.748;2023-09-08T09:34:52;28.00;88.50
57058;DHT22;55017;52.848;6.748;2023-09-08T09:37:22;28.00;87.50
57058;DHT22;55017;52.848;6.748;2023-09-08T09:39:51;28.10;85.90
57058;DHT22;55017;52.848;6.748;2023-09-08T09:42:17;28.10;85.10
57058;DHT22;55017;52.848;6.748;2023-09-08T09:44:43;28.10;86.20
57058;DHT22;55017;52.848;6.748;2023-09-08T09:47:09;28.10;84.50
57058;DHT22;55017;52.848;6.748;2023-09-08T09:49:41;28.30;85.90
57058;DHT22;55017;52.848;6.748;2023-09-08T09:52:07;28.40;84.10
57058;DHT22;55017;52.848;6.748;2023-09-08T09:54:32;28.50;83.30
57058;DHT22;55017;52.848;6.748;2023-09-08T09:56:58;28.50;84.40
57058;DHT22;55017;52.848;6.748;2023-09-08T09:59:24;28.60;82.40
57058;DHT22;55017;52.848;6.748;2023-09-08T10:01:50;28.60;83.00
57058;DHT22;55017;52.848;6.748;2023-09-08T10:04:17;28.60;80.20
57058;DHT22;55017;52.848;6.748;2023-09-08T10:06:43;28.80;78.90
57058;DHT22;55017;52.848;6.748;2023-09-08T10:09:10;29.00;80.30
57058;DHT22;55017;52.848;6.748;2023-09-08T10:11:50;29.00;79.30
57058;DHT22;55017;52.848;6.748;2023-09-08T10:14:18;29.10;80.30
57058;DHT22;55017;52.848;6.748;2023-09-08T10:16:50;29.20;79.10
57058;DHT22;55017;52.848;6.748;2023-09-08T10:19:18;29.20;81.80
57058;DHT22;55017;52.848;6.748;2023-09-08T10:21:47;29.30;76.00
57058;DHT22;55017;52.848;6.748;2023-09-08T10:24:15;29.30;73.70
57058;DHT22;55017;52.848;6.748;2023-09-08T10:26:44;29.40;77.40
57058;DHT22;55017;52.848;6.748;2023-09-08T10:29:12;29.60;73.10
57058;DHT22;55017;52.848;6.748;2023-09-08T10:31:39;29.60;73.40
57058;DHT22;55017;52.848;6.748;2023-09-08T10:34:05;29.70;75.70
57058;DHT22;55017;52.848;6.748;2023-09-08T10:36:31;29.80;75.40
57058;DHT22;55017;52.848;6.748;2023-09-08T10:39:33;29.90;75.80
57058;DHT22;55017;52.848;6.748;2023-09-08T10:44:56;30.10;75.80
57058;DHT22;55017;52.848;6.748;2023-09-08T10:47:22;30.20;71.60
57058;DHT22;55017;52.848;6.748;2023-09-08T10:49:48;30.20;73.70
57058;DHT22;55017;52.848;6.748;2023-09-08T10:52:15;30.30;72.70
57058;DHT22;55017;52.848;6.748;2023-09-08T10:54:47;30.50;71.50
57058;DHT22;55017;52.848;6.748;2023-09-08T10:57:18;30.60;72.70
57058;DHT22;55017;52.848;6.748;2023-09-08T10:59:55;30.90;71.30
57058;DHT22;55017;52.848;6.748;2023-09-08T11:02:34;30.90;70.10
57058;DHT22;55017;52.848;6.748;2023-09-08T11:05:01;31.10;72.80
57058;DHT22;55017;52.848;6.748;2023-09-08T11:07:27;31.10;69.10
57058;DHT22;55017;52.848;6.748;2023-09-08T11:09:53;31.20;69.80
57058;DHT22;55017;52.848;6.748;2023-09-08T11:12:19;31.20;68.00
57058;DHT22;55017;52.848;6.748;2023-09-08T11:14:49;31.10;68.40
57058;DHT22;55017;52.848;6.748;2023-09-08T11:17:14;31.10;66.90
57058;DHT22;55017;52.848;6.748;2023-09-08T11:19:47;31.20;68.80
57058;DHT22;55017;52.848;6.748;2023-09-08T11:22:14;31.20;67.00
57058;DHT22;55017;52.848;6.748;2023-09-08T11:24:41;31.40;67.00
57058;DHT22;55017;52.848;6.748;2023-09-08T11:27:07;31.40;66.20
57058;DHT22;55017;52.848;6.748;2023-09-08T11:29:33;31.50;67.00
57058;DHT22;55017;52.848;6.748;2023-09-08T11:31:58;31.50;65.80
57058;DHT22;55017;52.848;6.748;2023-09-08T11:34:24;31.50;66.70
57058;DHT22;55017;52.848;6.748;2023-09-08T11:36:50;31.70;66.80
57058;DHT22;55017;52.848;6.748;2023-09-08T11:39:17;31.70;65.40
57058;DHT22;55017;52.848;6.748;2023-09-08T11:41:42;31.80;64.00
57058;DHT22;55017;52.848;6.748;2023-09-08T11:44:08;31.70;62.30
57058;DHT22;55017;52.848;6.748;2023-09-08T11:46:34;31.80;64.70
57058;DHT22;55017;52.848;6.748;2023-09-08T11:48:59;32.00;61.60
57058;DHT22;55017;52.848;6.748;2023-09-08T11:51:26;31.90;64.70
57058;DHT22;55017;52.848;6.748;2023-09-08T11:53:52;31.90;64.00
57058;DHT22;55017;52.848;6.748;2023-09-08T11:56:18;32.00;64.70
57058;DHT22;55017;52.848;6.748;2023-09-08T11:58:44;32.10;64.90
57058;DHT22;55017;52.848;6.748;2023-09-08T12:01:10;32.20;61.00
57058;DHT22;55017;52.848;6.748;2023-09-08T12:03:51;32.30;60.50
57058;DHT22;55017;52.848;6.748;2023-09-08T12:06:17;32.30;62.40
57058;DHT22;55017;52.848;6.748;2023-09-08T12:08:43;32.40;63.80
57058;DHT22;55017;52.848;6.748;2023-09-08T12:11:10;32.40;62.40
57058;DHT22;55017;52.848;6.748;2023-09-08T12:13:35;32.30;61.00
57058;DHT22;55017;52.848;6.748;2023-09-08T12:16:01;32.40;60.60
57058;DHT22;55017;52.848;6.748;2023-09-08T12:18:39;32.50;59.90
57058;DHT22;55017;52.848;6.748;2023-09-08T12:21:05;32.70;59.60
57058;DHT22;55017;52.848;6.748;2023-09-08T12:23:31;32.80;60.20
57058;DHT22;55017;52.848;6.748;2023-09-08T12:25:57;33.10;60.70
57058;DHT22;55017;52.848;6.748;2023-09-08T12:28:23;33.10;59.70
57058;DHT22;55017;52.848;6.748;2023-09-08T12:30:49;33.20;60.90
57058;DHT22;55017;52.848;6.748;2023-09-08T12:33:16;33.20;60.20
57058;DHT22;55017;52.848;6.748;2023-09-08T12:35:46;33.30;60.60
57058;DHT22;55017;52.848;6.748;2023-09-08T12:38:13;33.10;60.50
57058;DHT22;55017;52.848;6.748;2023-09-08T12:40:39;33.40;59.30
57058;DHT22;55017;52.848;6.748;2023-09-08T12:43:05;33.50;56.50
57058;DHT22;55017;52.848;6.748;2023-09-08T12:45:32;34.30;60.70
57058;DHT22;55017;52.848;6.748;2023-09-08T12:48:00;36.00;57.20
57058;DHT22;55017;52.848;6.748;2023-09-08T12:50:28;37.90;56.00
57058;DHT22;55017;52.848;6.748;2023-09-08T12:52:53;39.70;55.80
57058;DHT22;55017;52.848;6.748;2023-09-08T12:55:19;40.50;50.30
57058;DHT22;55017;52.848;6.748;2023-09-08T12:57:45;41.60;49.00
57058;DHT22;55017;52.848;6.748;2023-09-08T13:00:12;42.30;47.50
57058;DHT22;55017;52.848;6.748;2023-09-08T13:02:38;42.70;43.60
57058;DHT22;55017;52.848;6.748;2023-09-08T13:05:04;43.10;43.30
57058;DHT22;55017;52.848;6.748;2023-09-08T13:07:29;43.90;45.30
57058;DHT22;55017;52.848;6.748;2023-09-08T13:09:56;44.30;43.40
57058;DHT22;55017;52.848;6.748;2023-09-08T13:12:21;44.40;42.40
57058;DHT22;55017;52.848;6.748;2023-09-08T13:14:47;44.30;42.70
57058;DHT22;55017;52.848;6.748;2023-09-08T13:17:13;44.60;44.10
57058;DHT22;55017;52.848;6.748;2023-09-08T13:19:41;44.60;41.30
57058;DHT22;55017;52.848;6.748;2023-09-08T13:22:07;44.50;39.00
57058;DHT22;55017;52.848;6.748;2023-09-08T13:24:33;44.60;40.60
57058;DHT22;55017;52.848;6.748;2023-09-08T13:27:00;44.30;37.70
57058;DHT22;55017;52.848;6.748;2023-09-08T13:29:25;44.60;38.30
57058;DHT22;55017;52.848;6.748;2023-09-08T13:31:52;44.80;40.70
57058;DHT22;55017;52.848;6.748;2023-09-08T13:34:19;45.00;39.60
57058;DHT22;55017;52.848;6.748;2023-09-08T13:36:45;44.60;38.60
57058;DHT22;55017;52.848;6.748;2023-09-08T13:39:10;45.00;38.30
57058;DHT22;55017;52.848;6.748;2023-09-08T13:42:08;45.00;37.60
57058;DHT22;55017;52.848;6.748;2023-09-08T13:44:34;44.90;39.50
57058;DHT22;55017;52.848;6.748;2023-09-08T13:46:59;44.80;39.10
57058;DHT22;55017;52.848;6.748;2023-09-08T13:49:26;44.80;39.60
57058;DHT22;55017;52.848;6.748;2023-09-08T13:51:51;44.90;38.50
57058;DHT22;55017;52.848;6.748;2023-09-08T13:54:19;45.00;37.70
57058;DHT22;55017;52.848;6.748;2023-09-08T13:56:44;44.80;37.60
57058;DHT22;55017;52.848;6.748;2023-09-08T13:59:10;44.50;39.30
57058;DHT22;55017;52.848;6.748;2023-09-08T14:01:37;44.10;36.70
57058;DHT22;55017;52.848;6.748;2023-09-08T14:04:03;44.10;37.70
57058;DHT22;55017;52.848;6.748;2023-09-08T14:06:31;44.10;37.20
57058;DHT22;55017;52.848;6.748;2023-09-08T14:08:57;44.10;39.00
57058;DHT22;55017;52.848;6.748;2023-09-08T14:11:23;43.20;37.60
57058;DHT22;55017;52.848;6.748;2023-09-08T14:13:48;41.70;37.00
57058;DHT22;55017;52.848;6.748;2023-09-08T14:16:14;40.10;37.60
57058;DHT22;55017;52.848;6.748;2023-09-08T14:18:39;39.30;40.20
57058;DHT22;55017;52.848;6.748;2023-09-08T14:21:06;38.30;40.30
57058;DHT22;55017;52.848;6.748;2023-09-08T14:23:32;37.40;41.90
57058;DHT22;55017;52.848;6.748;2023-09-08T14:25:59;36.50;43.60
57058;DHT22;55017;52.848;6.748;2023-09-08T14:28:25;35.70;44.80
57058;DHT22;55017;52.848;6.748;2023-09-08T14:30:52;35.40;44.90
57058;DHT22;55017;52.848;6.748;2023-09-08T14:33:18;34.90;46.40
57058;DHT22;55017;52.848;6.748;2023-09-08T14:35:44;34.20;47.10
57058;DHT22;55017;52.848;6.748;2023-09-08T14:38:12;33.70;48.20
57058;DHT22;55017;52.848;6.748;2023-09-08T14:40:38;33.60;48.90
57058;DHT22;55017;52.848;6.748;2023-09-08T14:43:03;34.20;48.70
57058;DHT22;55017;52.848;6.748;2023-09-08T14:45:29;33.90;49.20
57058;DHT22;55017;52.848;6.748;2023-09-08T14:47:55;33.30;50.30
57058;DHT22;55017;52.848;6.748;2023-09-08T14:50:20;33.10;50.40
57058;DHT22;55017;52.848;6.748;2023-09-08T14:52:46;33.10;50.70
57058;DHT22;55017;52.848;6.748;2023-09-08T14:55:12;33.10;51.60
57058;DHT22;55017;52.848;6.748;2023-09-08T14:57:37;33.50;50.80
57058;DHT22;55017;52.848;6.748;2023-09-08T15:00:03;33.10;50.30
57058;DHT22;55017;52.848;6.748;2023-09-08T15:02:30;32.70;49.30
57058;DHT22;55017;52.848;6.748;2023-09-08T15:05:03;32.30;50.90
57058;DHT22;55017;52.848;6.748;2023-09-08T15:07:29;31.90;51.70
57058;DHT22;55017;52.848;6.748;2023-09-08T15:09:54;31.60;52.00
57058;DHT22;55017;52.848;6.748;2023-09-08T15:12:20;31.30;51.40
57058;DHT22;55017;52.848;6.748;2023-09-08T15:14:46;31.00;51.40
57058;DHT22;55017;52.848;6.748;2023-09-08T15:17:12;30.80;51.90
57058;DHT22;55017;52.848;6.748;2023-09-08T15:19:42;30.50;52.20
57058;DHT22;55017;52.848;6.748;2023-09-08T15:22:07;30.30;52.70
57058;DHT22;55017;52.848;6.748;2023-09-08T15:24:33;30.20;53.30
57058;DHT22;55017;52.848;6.748;2023-09-08T15:26:59;30.00;55.30
57058;DHT22;55017;52.848;6.748;2023-09-08T15:29:25;29.70;56.00
57058;DHT22;55017;52.848;6.748;2023-09-08T15:31:51;29.60;55.00
57058;DHT22;55017;52.848;6.748;2023-09-08T15:34:17;29.60;55.30